Time;durP1;ratioP1;P1;durP2;ratioP2;P2;SDS_P1;SDS_P2;PMS_P1;PMS_P2;Temp;Humidity;BMP_temperature;BMP_pressure;BME280_temperature;BME280_humidity;BME280_pressure;Samples;Min_cycle;Max_cycle;Signal;HPM_P1;HPM_P2
2022/04/29 00:00:11;;;;;;;;;;;;;;;6.86;70.30;101835.66;5076191;28;991;-89
2022/04/29 00:02:36;;;;;;;;;;;;;;;7.17;69.21;101828.22;5076308;28;1247;-89
2022/04/29 00:05:02;;;;;;;;;;;;;;;7.03;68.03;101836.75;5076123;28;1322;-90
2022/04/29 00:07:27;;;;;;;;;;;;;;;7.00;68.12;101832.56;5075781;28;1278;-89
2022/04/29 00:09:52;;;;;;;;;;;;;;;6.80;68.88;101835.47;5076142;28;1180;-90
2022/04/29 00:12:19;;;;;;;;;;;;;;;6.90;68.90;101832.25;5075729;28;1957;-90
2022/04/29 00:14:44;;;;;;;;;;;;;;;6.67;70.15;101840.22;5076157;28;1251;-90
2022/04/29 00:17:10;;;;;;;;;;;;;;;6.76;69.40;101831.56;5075782;28;1331;-90
2022/04/29 00:19:35;;;;;;;;;;;;;;;6.66;68.53;101833.09;5075667;28;1216;-90
2022/04/29 00:22:00;;;;;;;;;;;;;;;6.56;69.06;101830.88;5076048;28;987;-90
2022/04/29 00:24:25;;;;;;;;;;;;;;;6.40;69.73;101834.97;5075655;28;911;-90
2022/04/29 00:26:50;;;;;;;;;;;;;;;6.57;69.91;101831.72;5075944;28;979;-91
2022/04/29 00:29:16;;;;;;;;;;;;;;;6.54;68.86;101827.56;5075406;28;1368;-90
2022/04/29 00:31:41;;;;;;;;;;;;;;;6.33;69.79;101833.34;5075654;28;1306;-90
2022/04/29 00:34:06;;;;;;;;;;;;;;;6.55;70.65;101833.84;5075847;28;1890;-89
2022/04/29 00:36:32;;;;;;;;;;;;;;;6.51;69.34;101832.59;5075754;28;1299;-89
2022/04/29 00:38:57;;;;;;;;;;;;;;;6.56;69.49;101821.88;5075418;28;1287;-89
2022/04/29 00:41:23;;;;;;;;;;;;;;;6.56;69.73;101822.72;5075780;28;1355;-90
2022/04/29 00:44:01;;;;;;;;;;;;;;;6.65;69.42;101824.09;5075423;28;1397;-90
2022/04/29 00:46:27;;;;;;;;;;;;;;;6.65;68.99;101820.53;5075553;28;1243;-89
2022/04/29 00:48:52;;;;;;;;;;;;;;;6.60;69.93;101825.84;5075742;28;1275;-90
2022/04/29 00:51:17;;;;;;;;;;;;;;;6.49;69.18;101815.66;5075759;28;1236;-90
2022/04/29 00:53:43;;;;;;;;;;;;;;;6.50;69.40;101818.16;5075515;28;1953;-89
2022/04/29 00:56:10;;;;;;;;;;;;;;;6.28;70.62;101812.28;5075437;28;1259;-90
2022/04/29 00:58:38;;;;;;;;;;;;;;;6.39;70.07;101806.09;5075903;28;1342;-90
2022/04/29 01:01:04;;;;;;;;;;;;;;;6.43;70.52;101812.78;5078766;28;1325;-90
2022/04/29 01:03:29;;;;;;;;;;;;;;;6.42;70.76;101811.13;5078892;28;1254;-90
2022/04/29 01:05:55;;;;;;;;;;;;;;;6.46;70.32;101809.59;5078959;28;1309;-89
2022/04/29 01:08:20;;;;;;;;;;;;;;;6.57;70.37;101804.50;5078919;28;1279;-89
2022/04/29 01:10:46;;;;;;;;;;;;;;;6.56;69.58;101797.41;5078820;28;1199;-90
2022/04/29 01:13:11;;;;;;;;;;;;;;;6.37;69.49;101800.06;5078992;28;1894;-90
2022/04/29 01:15:37;;;;;;;;;;;;;;;5.70;71.58;101798.78;5079035;28;1227;-90
2022/04/29 01:18:06;;;;;;;;;;;;;;;5.93;72.84;101797.44;5078565;28;1295;-91
2022/04/29 01:20:31;;;;;;;;;;;;;;;6.07;70.76;101796.31;5078614;28;1275;-90
2022/04/29 01:22:56;;;;;;;;;;;;;;;6.16;71.34;101791.44;5078752;28;1219;-91
2022/04/29 01:25:22;;;;;;;;;;;;;;;6.13;70.35;101781.81;5079333;28;1339;-89
2022/04/29 01:27:49;;;;;;;;;;;;;;;5.87;71.09;101793.66;5079248;28;1193;-90
2022/04/29 01:30:16;;;;;;;;;;;;;;;5.87;71.23;101782.00;5086941;28;1263;-90
2022/04/29 01:32:41;;;;;;;;;;;;;;;5.94;71.75;101791.81;5079243;28;1951;-89
2022/04/29 01:35:08;;;;;;;;;;;;;;;5.85;72.45;101784.09;5078680;28;1305;-89
2022/04/29 01:37:33;;;;;;;;;;;;;;;5.90;71.77;101781.56;5078281;28;1345;-90
2022/04/29 01:39:58;;;;;;;;;;;;;;;5.93;70.97;101778.44;5078386;28;1171;-90
2022/04/29 01:42:24;;;;;;;;;;;;;;;5.97;72.24;101774.19;5078228;28;1259;-89
2022/04/29 01:44:49;;;;;;;;;;;;;;;6.11;71.55;101767.66;5078288;28;1311;-89
2022/04/29 01:47:14;;;;;;;;;;;;;;;6.18;71.22;101763.00;5078240;28;1350;-89
2022/04/29 01:49:40;;;;;;;;;;;;;;;6.10;71.22;101757.00;5078347;28;1223;-89
2022/04/29 01:52:05;;;;;;;;;;;;;;;6.03;70.98;101767.91;5077987;28;1947;-90
2022/04/29 01:54:30;;;;;;;;;;;;;;;5.73;72.81;101759.47;5078020;28;1199;-89
2022/04/29 01:56:56;;;;;;;;;;;;;;;6.01;72.83;101761.84;5077942;28;1384;-89
2022/04/29 01:59:33;;;;;;;;;;;;;;;6.23;71.74;101765.03;5077794;28;1315;-91
2022/04/29 02:01:58;;;;;;;;;;;;;;;6.29;71.01;101756.84;5078035;28;1239;-89
2022/04/29 02:04:24;;;;;;;;;;;;;;;6.38;71.25;101763.66;5077887;28;1286;-89
2022/04/29 02:06:49;;;;;;;;;;;;;;;6.42;71.71;101764.03;5095907;28;808;-89
2022/04/29 02:09:14;;;;;;;;;;;;;;;6.14;71.68;101771.78;5077941;28;1251;-89
2022/04/29 02:11:39;;;;;;;;;;;;;;;6.16;71.98;101775.97;5094716;28;1022;-89
2022/04/29 02:14:05;;;;;;;;;;;;;;;5.75;72.79;101765.53;5078058;28;1894;-89
2022/04/29 02:16:30;;;;;;;;;;;;;;;5.57;73.17;101774.41;5077827;28;1271;-89
2022/04/29 02:18:55;;;;;;;;;;;;;;;5.74;73.55;101763.88;5077416;28;1189;-89
2022/04/29 02:21:21;;;;;;;;;;;;;;;5.98;73.12;101765.84;5077538;28;1263;-89
2022/04/29 02:23:46;;;;;;;;;;;;;;;6.04;72.48;101764.94;5095588;28;813;-90
2022/04/29 02:26:11;;;;;;;;;;;;;;;6.03;71.69;101757.88;5077317;28;1261;-89
2022/04/29 02:28:36;;;;;;;;;;;;;;;6.06;72.58;101765.56;5077028;28;1180;-89
2022/04/29 02:31:02;;;;;;;;;;;;;;;6.03;72.57;101759.75;5077681;28;1255;-89
2022/04/29 02:33:27;;;;;;;;;;;;;;;5.82;72.59;101762.78;5077257;28;1950;-90
2022/04/29 02:35:53;;;;;;;;;;;;;;;5.70;73.85;101755.31;5077268;28;1183;-89
2022/04/29 02:38:18;;;;;;;;;;;;;;;5.84;72.62;101756.09;5076982;28;1179;-89
2022/04/29 02:40:43;;;;;;;;;;;;;;;5.56;72.60;101763.75;5095376;28;900;-90
2022/04/29 02:43:09;;;;;;;;;;;;;;;5.57;72.57;101760.81;5076949;28;1212;-90
2022/04/29 02:45:34;;;;;;;;;;;;;;;5.58;72.36;101750.78;5077149;28;1255;-89
2022/04/29 02:47:59;;;;;;;;;;;;;;;5.64;73.12;101755.34;5077209;28;1180;-90
2022/04/29 02:50:24;;;;;;;;;;;;;;;5.66;73.42;101755.97;5076939;28;1351;-90
2022/04/29 02:52:50;;;;;;;;;;;;;;;5.68;73.02;101746.56;5076829;28;1893;-89
2022/04/29 02:55:15;;;;;;;;;;;;;;;5.63;73.43;101740.94;5077247;28;1231;-89
2022/04/29 02:57:40;;;;;;;;;;;;;;;5.63;73.45;101734.66;5094931;28;1247;-89
2022/04/29 03:00:07;;;;;;;;;;;;;;;5.67;73.54;101728.59;5094801;28;833;-89
2022/04/29 03:02:33;;;;;;;;;;;;;;;5.60;72.45;101735.13;5076697;28;1283;-90
2022/04/29 03:04:58;;;;;;;;;;;;;;;5.63;74.00;101734.66;5076852;28;1224;-89
2022/04/29 03:07:23;;;;;;;;;;;;;;;5.67;73.16;101734.03;5076705;28;1170;-90
2022/04/29 03:09:48;;;;;;;;;;;;;;;5.39;73.30;101728.13;5076854;28;892;-90
2022/04/29 03:12:15;;;;;;;;;;;;;;;5.34;73.00;101727.94;5076513;28;1948;-90
2022/04/29 03:14:40;;;;;;;;;;;;;;;5.27;72.71;101724.44;5076536;28;1235;-90
2022/04/29 03:17:05;;;;;;;;;;;;;;;5.07;74.19;101727.22;5076450;28;1180;-90
2022/04/29 03:19:30;;;;;;;;;;;;;;;5.16;73.44;101730.53;5076771;28;1200;-89
2022/04/29 03:21:56;;;;;;;;;;;;;;;5.18;73.77;101717.59;5076075;28;959;-90
2022/04/29 03:24:21;;;;;;;;;;;;;;;5.25;73.82;101724.66;5076402;28;1204;-90
2022/04/29 03:26:46;;;;;;;;;;;;;;;5.23;73.72;101715.03;5076368;28;1251;-89
2022/04/29 03:29:11;;;;;;;;;;;;;;;5.24;73.54;101716.72;5076344;28;1264;-90
2022/04/29 03:31:36;;;;;;;;;;;;;;;5.07;73.22;101710.09;5076249;28;1235;-90
2022/04/29 03:34:02;;;;;;;;;;;;;;;4.87;75.26;101707.44;5076195;28;1961;-90
2022/04/29 03:36:27;;;;;;;;;;;;;;;4.95;74.77;101710.75;5076366;28;1175;-89
2022/04/29 03:38:52;;;;;;;;;;;;;;;5.00;74.52;101710.13;5076700;28;1447;-89
2022/04/29 03:41:17;;;;;;;;;;;;;;;4.80;75.94;101710.19;5076108;28;1257;-89
2022/04/29 03:43:42;;;;;;;;;;;;;;;4.58;76.33;101716.91;5076151;28;877;-90
2022/04/29 03:46:07;;;;;;;;;;;;;;;4.55;77.03;101715.47;5076368;28;1063;-90
2022/04/29 03:49:35;;;;;;;;;;;;;;;4.57;76.06;101710.66;5075751;28;1281;-90
2022/04/29 03:51:18;;;;;;;;;;;;;;;4.76;75.46;101708.97;5093712;28;1092;-89
2022/04/29 03:53:43;;;;;;;;;;;;;;;4.77;75.04;101710.59;5075722;28;1906;-89
2022/04/29 03:56:08;;;;;;;;;;;;;;;4.86;75.10;101711.19;5094057;28;987;-89
2022/04/29 03:58:34;;;;;;;;;;;;;;;4.81;74.87;101711.84;5093840;28;1182;-89
2022/04/29 04:00:59;;;;;;;;;;;;;;;4.77;74.60;101705.16;5076206;28;1019;-89
2022/04/29 04:03:24;;;;;;;;;;;;;;;4.83;75.30;101709.78;5075948;28;967;-89
2022/04/29 04:08:34;;;;;;;;;;;;;;;5.02;74.93;101715.34;5094381;28;1201;-89
2022/04/29 04:10:59;;;;;;;;;;;;;;;4.83;75.19;101714.38;5076256;28;1564;-90
2022/04/29 04:13:24;;;;;;;;;;;;;;;4.86;75.99;101711.19;5075628;28;1972;-89
2022/04/29 04:15:49;;;;;;;;;;;;;;;5.01;74.83;101719.09;5075661;28;946;-88
2022/04/29 04:18:14;;;;;;;;;;;;;;;4.97;74.66;101723.28;5075650;28;1316;-89
2022/04/29 04:20:40;;;;;;;;;;;;;;;5.07;75.36;101710.09;5075643;28;983;-89
2022/04/29 04:23:06;;;;;;;;;;;;;;;5.05;75.02;101723.03;5075761;28;1211;-89
2022/04/29 04:25:31;;;;;;;;;;;;;;;4.88;75.80;101725.38;5075984;28;1172;-89
2022/04/29 04:27:56;;;;;;;;;;;;;;;4.84;74.84;101722.28;5075422;28;1342;-89
2022/04/29 04:30:21;;;;;;;;;;;;;;;4.66;75.82;101726.72;5076168;28;1048;-88
2022/04/29 04:32:46;;;;;;;;;;;;;;;4.63;76.47;101733.38;5075570;28;1957;-89
2022/04/29 04:35:11;;;;;;;;;;;;;;;4.86;75.95;101735.63;5077960;28;730;-89
2022/04/29 04:37:36;;;;;;;;;;;;;;;4.69;75.65;101732.53;5097629;28;1276;-89
2022/04/29 04:40:04;;;;;;;;;;;;;;;4.82;75.87;101729.81;5079710;28;977;-89
2022/04/29 04:42:54;;;;;;;;;;;;;;;4.84;75.14;101735.84;5097504;28;1165;-89
2022/04/29 04:45:19;;;;;;;;;;;;;;;4.38;76.05;101733.19;5079312;28;1206;-89
2022/04/29 04:47:44;;;;;;;;;;;;;;;4.53;76.83;101738.41;5079485;28;1208;-89
2022/04/29 04:50:14;;;;;;;;;;;;;;;4.76;76.18;101733.38;5079150;28;1204;-90
2022/04/29 04:52:43;;;;;;;;;;;;;;;4.56;76.41;101737.97;5079109;28;1951;-90
2022/04/29 04:55:08;;;;;;;;;;;;;;;4.42;77.65;101739.06;5079110;28;1230;-89
2022/04/29 04:57:34;;;;;;;;;;;;;;;4.42;77.88;101739.84;5078934;28;1236;-90
2022/04/29 04:59:59;;;;;;;;;;;;;;;4.83;76.91;101733.34;5079029;28;1105;-89
2022/04/29 05:02:24;;;;;;;;;;;;;;;5.02;76.00;101735.16;5079302;28;920;-90
2022/04/29 05:04:49;;;;;;;;;;;;;;;5.16;76.13;101735.94;5078718;28;1589;-89
2022/04/29 05:07:14;;;;;;;;;;;;;;;5.25;76.09;101735.50;5079015;28;1225;-89
2022/04/29 05:09:39;;;;;;;;;;;;;;;5.35;76.45;101743.19;5078714;28;1577;-89
2022/04/29 05:12:05;;;;;;;;;;;;;;;5.09;76.90;101736.00;5079492;28;1076;-89
2022/04/29 05:14:30;;;;;;;;;;;;;;;5.33;77.32;101739.84;5079902;28;1897;-90
2022/04/29 05:16:55;;;;;;;;;;;;;;;4.98;77.97;101741.22;5086731;28;1282;-89
2022/04/29 05:19:20;;;;;;;;;;;;;;;5.01;79.40;101740.81;5078878;28;1232;-89
2022/04/29 05:21:46;;;;;;;;;;;;;;;5.45;78.51;101738.09;5097119;28;1050;-89
2022/04/29 05:24:11;;;;;;;;;;;;;;;5.31;78.01;101740.06;5078753;28;1227;-89
2022/04/29 05:26:36;;;;;;;;;;;;;;;5.63;78.38;101738.22;5078526;28;1196;-89
2022/04/29 05:29:01;;;;;;;;;;;;;;;5.80;77.77;101743.97;5078265;28;1358;-89
2022/04/29 05:31:27;;;;;;;;;;;;;;;6.06;77.45;101745.72;5078447;28;1208;-89
2022/04/29 05:33:52;;;;;;;;;;;;;;;6.15;78.28;101746.28;5078154;28;1955;-89
2022/04/29 05:36:17;;;;;;;;;;;;;;;6.48;78.11;101749.53;5078450;28;1221;-90
2022/04/29 05:44:11;;;;;;;;;;;;;;;6.84;76.41;101756.94;5096771;28;689;-91
2022/04/29 05:46:36;;;;;;;;;;;;;;;7.00;76.07;101750.09;5077893;28;1290;-90
2022/04/29 05:49:02;;;;;;;;;;;;;;;7.06;75.09;101746.47;5077946;28;1200;-89
2022/04/29 05:51:27;;;;;;;;;;;;;;;7.02;74.49;101754.25;5078163;28;1282;-89
2022/04/29 05:53:52;;;;;;;;;;;;;;;7.18;75.28;101745.47;5095964;28;1947;-88
2022/04/29 05:56:17;;;;;;;;;;;;;;;7.23;75.17;101751.06;5078015;28;1188;-89
2022/04/29 05:58:42;;;;;;;;;;;;;;;7.16;74.71;101744.84;5078181;28;1226;-88
2022/04/29 06:01:07;;;;;;;;;;;;;;;7.14;74.97;101744.28;5077867;28;908;-88
2022/04/29 06:03:33;;;;;;;;;;;;;;;7.17;74.75;101740.25;5077777;28;1226;-88
2022/04/29 06:05:58;;;;;;;;;;;;;;;7.21;74.80;101744.19;5077543;28;1378;-89
2022/04/29 06:08:23;;;;;;;;;;;;;;;7.28;74.13;101744.09;5077751;28;1280;-88
2022/04/29 06:10:48;;;;;;;;;;;;;;;7.36;74.18;101739.19;5077664;28;1511;-89
2022/04/29 06:13:13;;;;;;;;;;;;;;;7.50;74.10;101739.81;5074045;28;1905;-89
2022/04/29 06:15:38;;;;;;;;;;;;;;;7.55;74.69;101734.53;5074436;28;1025;-89
2022/04/29 06:18:04;;;;;;;;;;;;;;;7.56;74.88;101741.66;5074132;28;1200;-90
2022/04/29 06:20:29;;;;;;;;;;;;;;;7.59;74.85;101733.00;5074073;28;1203;-90
2022/04/29 06:22:55;;;;;;;;;;;;;;;7.68;74.81;101730.78;5074445;28;1248;-89
2022/04/29 06:25:20;;;;;;;;;;;;;;;7.71;74.81;101733.06;5074228;28;1313;-90
2022/04/29 06:27:46;;;;;;;;;;;;;;;7.80;74.73;101729.78;5074186;28;1246;-89
2022/04/29 06:30:11;;;;;;;;;;;;;;;7.85;74.08;101731.78;5073939;28;1345;-89
2022/04/29 06:32:36;;;;;;;;;;;;;;;7.97;74.11;101730.78;5074964;28;1894;-89
2022/04/29 06:35:02;;;;;;;;;;;;;;;8.12;74.19;101729.50;5073824;28;1326;-89
2022/04/29 06:37:27;;;;;;;;;;;;;;;8.23;73.97;101726.78;5073487;28;1185;-89
2022/04/29 06:39:52;;;;;;;;;;;;;;;8.26;73.54;101723.59;5073342;28;1294;-90
2022/04/29 06:42:17;;;;;;;;;;;;;;;8.28;73.26;101720.63;5073247;28;1004;-90
2022/04/29 06:44:42;;;;;;;;;;;;;;;8.38;73.35;101725.53;5073435;28;1011;-90
2022/04/29 06:47:08;;;;;;;;;;;;;;;8.45;71.92;101724.34;5073825;28;1193;-89
2022/04/29 06:49:33;;;;;;;;;;;;;;;8.52;71.24;101721.50;5073637;28;1209;-89
2022/04/29 06:51:58;;;;;;;;;;;;;;;8.60;71.07;101716.50;5073836;28;1191;-90
2022/04/29 06:54:24;;;;;;;;;;;;;;;8.62;71.28;101711.66;5073512;28;1890;-89
2022/04/29 06:56:49;;;;;;;;;;;;;;;8.69;71.22;101722.44;5072974;28;1202;-90
2022/04/29 06:59:14;;;;;;;;;;;;;;;8.80;71.75;101716.16;5073668;28;1178;-90
2022/04/29 07:01:39;;;;;;;;;;;;;;;8.86;72.01;101717.91;5073711;28;1319;-90
2022/04/29 07:04:05;;;;;;;;;;;;;;;8.87;71.71;101716.03;5073371;28;1184;-90
2022/04/29 07:06:31;;;;;;;;;;;;;;;8.88;72.24;101720.41;5073469;28;1223;-90
2022/04/29 07:08:56;;;;;;;;;;;;;;;8.86;71.65;101711.63;5073191;28;1393;-90
2022/04/29 07:11:21;;;;;;;;;;;;;;;8.92;71.63;101705.22;5073325;28;1223;-89
2022/04/29 07:13:47;;;;;;;;;;;;;;;8.98;72.44;101701.53;5073383;28;2020;-90
2022/04/29 07:16:13;;;;;;;;;;;;;;;8.95;72.27;101697.38;5073137;28;1120;-89
2022/04/29 07:18:39;;;;;;;;;;;;;;;8.96;72.53;101700.94;5073178;28;1267;-89
2022/04/29 07:21:04;;;;;;;;;;;;;;;8.90;72.31;101704.63;5074271;28;797;-89
2022/04/29 07:23:29;;;;;;;;;;;;;;;8.81;71.60;101701.44;5073110;28;1171;-90
2022/04/29 07:25:54;;;;;;;;;;;;;;;8.81;71.44;101695.16;5073102;28;1035;-89
2022/04/29 07:28:21;;;;;;;;;;;;;;;8.81;72.05;101697.88;5072868;28;1286;-89
2022/04/29 07:30:46;;;;;;;;;;;;;;;8.81;71.48;101693.25;5073004;28;1408;-89
2022/04/29 07:33:11;;;;;;;;;;;;;;;8.77;71.78;101693.94;5072722;28;1969;-90
2022/04/29 07:43:48;;;;;;;;;;;;;;;8.57;71.44;101691.63;5074564;28;619;-92
2022/04/29 07:46:13;;;;;;;;;;;;;;;8.64;71.67;101695.03;5072711;28;1227;-89
2022/04/29 07:48:39;;;;;;;;;;;;;;;8.64;71.29;101690.41;5072806;28;1219;-91
2022/04/29 07:51:06;;;;;;;;;;;;;;;8.78;70.82;101696.44;5072745;28;1292;-91
2022/04/29 07:53:31;;;;;;;;;;;;;;;8.90;71.01;101685.50;5072640;28;1889;-89
2022/04/29 07:55:56;;;;;;;;;;;;;;;9.05;70.50;101688.56;5072792;28;1321;-91
2022/04/29 07:58:21;;;;;;;;;;;;;;;9.18;70.95;101693.78;5072560;28;1307;-90
2022/04/29 08:00:46;;;;;;;;;;;;;;;9.34;70.00;101694.91;5072664;28;1283;-90
2022/04/29 08:03:11;;;;;;;;;;;;;;;9.45;70.20;101692.09;5072971;28;1363;-89
2022/04/29 08:05:37;;;;;;;;;;;;;;;9.54;69.77;101691.72;5076140;28;1244;-89
2022/04/29 08:08:02;;;;;;;;;;;;;;;9.61;68.87;101692.41;5076184;28;1409;-90
2022/04/29 08:10:29;;;;;;;;;;;;;;;9.58;68.03;101691.00;5079161;28;1263;-89
2022/04/29 08:12:54;;;;;;;;;;;;;;;9.58;67.98;101685.53;5079962;28;2012;-89
2022/04/29 08:15:20;;;;;;;;;;;;;;;9.63;68.04;101682.88;5079934;28;1358;-89
2022/04/29 08:17:45;;;;;;;;;;;;;;;9.69;68.33;101679.19;5097837;28;1279;-89
2022/04/29 08:20:11;;;;;;;;;;;;;;;9.77;67.47;101681.50;5079837;28;1262;-89
2022/04/29 08:22:36;;;;;;;;;;;;;;;9.73;68.08;101671.31;5097901;28;1047;-89
2022/04/29 08:25:02;;;;;;;;;;;;;;;9.69;67.76;101672.88;5080088;28;1486;-89
2022/04/29 08:27:28;;;;;;;;;;;;;;;9.67;68.65;101666.81;5079844;28;1278;-89
2022/04/29 08:29:53;;;;;;;;;;;;;;;9.77;67.95;101669.75;5079653;28;1322;-89
2022/04/29 08:32:18;;;;;;;;;;;;;;;9.86;68.54;101668.25;5079354;28;1890;-89
2022/04/29 08:34:43;;;;;;;;;;;;;;;9.96;68.27;101670.31;5079432;28;1382;-88
2022/04/29 08:37:09;;;;;;;;;;;;;;;10.05;67.80;101666.94;5097586;28;1024;-89
2022/04/29 08:39:34;;;;;;;;;;;;;;;10.12;67.98;101666.78;5079396;28;1295;-90
2022/04/29 08:42:00;;;;;;;;;;;;;;;10.22;68.43;101662.31;5079394;28;1327;-90
2022/04/29 08:44:26;;;;;;;;;;;;;;;10.34;67.20;101658.66;5079466;28;1420;-91
2022/04/29 08:46:51;;;;;;;;;;;;;;;10.40;67.04;101661.22;5079021;28;1302;-90
2022/04/29 08:49:17;;;;;;;;;;;;;;;10.49;67.61;101645.19;5079295;28;1263;-90
2022/04/29 08:51:43;;;;;;;;;;;;;;;10.57;66.78;101653.81;5067618;28;1771;-92
2022/04/29 08:58:36;;;;;;;;;;;;;;;10.67;66.89;101644.91;5059206;28;1894;-90
2022/04/29 08:59:38;;;;;;;;;;;;;;;10.97;65.20;101648.03;5077451;28;1311;-90
2022/04/29 09:02:03;;;;;;;;;;;;;;;11.14;65.33;101636.19;5086507;28;1661;-91
2022/04/29 09:04:29;;;;;;;;;;;;;;;11.30;64.87;101644.34;5092352;28;1325;-91
2022/04/29 09:06:54;;;;;;;;;;;;;;;11.46;64.25;101636.25;5078590;28;1039;-89
2022/04/29 09:09:21;;;;;;;;;;;;;;;11.61;65.33;101641.91;5078145;28;1248;-90
2022/04/29 09:11:46;;;;;;;;;;;;;;;11.77;63.53;101632.75;5075245;28;1520;-92
2022/04/29 09:14:25;;;;;;;;;;;;;;;11.86;63.73;101633.09;5078076;28;1968;-92
2022/04/29 09:16:50;;;;;;;;;;;;;;;11.81;63.18;101631.16;5078027;28;1490;-89
2022/04/29 09:19:29;;;;;;;;;;;;;;;11.84;63.06;101625.13;5078527;28;1512;-91
2022/04/29 09:22:07;;;;;;;;;;;;;;;11.85;62.96;101624.03;5077858;28;1506;-92
2022/04/29 09:24:33;;;;;;;;;;;;;;;11.78;60.69;101626.19;5077680;28;1688;-91
2022/04/29 09:26:59;;;;;;;;;;;;;;;11.82;61.61;101631.97;5066984;28;1455;-91
2022/04/29 09:29:24;;;;;;;;;;;;;;;11.82;61.59;101631.97;5077983;28;1510;-91
2022/04/29 09:31:54;;;;;;;;;;;;;;;11.78;61.75;101625.34;5078409;28;1311;-92
2022/04/29 09:34:19;;;;;;;;;;;;;;;11.79;62.76;101619.59;5073950;28;1899;-91
2022/04/29 09:36:45;;;;;;;;;;;;;;;11.88;64.23;101625.44;5074145;28;1767;-89
2022/04/29 09:39:30;;;;;;;;;;;;;;;11.90;62.43;101612.28;5095322;28;1424;-92
2022/04/29 09:42:01;;;;;;;;;;;;;;;11.96;62.28;101600.25;5080783;28;1394;-91
2022/04/29 09:44:34;;;;;;;;;;;;;;;12.06;63.06;101597.59;5093679;28;1608;-92
2022/04/29 09:47:09;;;;;;;;;;;;;;;12.17;62.68;101598.47;5071273;28;1755;-92
2022/04/29 09:49:34;;;;;;;;;;;;;;;12.27;64.61;101601.28;5070875;28;1413;-92
2022/04/29 09:52:00;;;;;;;;;;;;;;;12.36;62.95;101594.22;5074111;28;1460;-90
2022/04/29 09:54:26;;;;;;;;;;;;;;;12.46;61.63;101589.63;5077214;28;1885;-91
2022/04/29 09:57:01;;;;;;;;;;;;;;;12.57;61.61;101589.66;5077934;28;1152;-91
2022/04/29 09:59:28;;;;;;;;;;;;;;;12.64;61.09;101582.00;5077309;28;1536;-92
2022/04/29 10:01:53;;;;;;;;;;;;;;;12.75;61.09;101580.97;5077583;28;1430;-93
2022/04/29 10:04:19;;;;;;;;;;;;;;;12.86;60.31;101582.63;5076670;28;1268;-92
2022/04/29 10:06:45;;;;;;;;;;;;;;;12.99;61.25;101579.41;5077337;28;1385;-91
2022/04/29 10:09:11;;;;;;;;;;;;;;;13.09;60.04;101567.63;5074375;28;1382;-91
2022/04/29 10:11:36;;;;;;;;;;;;;;;13.12;60.36;101565.13;5095653;28;967;-91
2022/04/29 10:14:03;;;;;;;;;;;;;;;13.18;60.84;101568.78;5077049;28;1894;-92
2022/04/29 10:16:31;;;;;;;;;;;;;;;13.31;60.46;101567.41;5077295;28;1630;-92
2022/04/29 10:21:48;;;;;;;;;;;;;;;13.41;58.66;101568.25;5089236;28;1571;-91
2022/04/29 10:24:14;;;;;;;;;;;;;;;13.51;59.42;101567.44;5076872;28;1301;-91
2022/04/29 10:26:39;;;;;;;;;;;;;;;13.66;60.95;101570.19;5076606;28;1517;-92
2022/04/29 10:29:05;;;;;;;;;;;;;;;13.67;60.15;101576.50;5093516;28;1590;-90
2022/04/29 10:31:30;;;;;;;;;;;;;;;13.61;58.43;101570.16;5075979;28;1391;-92
2022/04/29 10:34:15;;;;;;;;;;;;;;;13.64;58.87;101564.13;5076066;28;1979;-91
2022/04/29 10:36:45;;;;;;;;;;;;;;;13.73;58.31;101561.66;5073438;28;1542;-90
2022/04/29 10:39:16;;;;;;;;;;;;;;;13.83;57.65;101548.72;5082534;28;1503;-90
2022/04/29 10:41:57;;;;;;;;;;;;;;;14.03;57.77;101551.44;5072848;28;1624;-91
2022/04/29 10:44:22;;;;;;;;;;;;;;;14.26;58.25;101550.03;5072293;28;1419;-91
2022/04/29 10:46:48;;;;;;;;;;;;;;;14.41;57.04;101548.34;5069882;28;1565;-91
2022/04/29 10:49:19;;;;;;;;;;;;;;;14.49;55.54;101540.31;5069868;28;1268;-91
2022/04/29 10:51:46;;;;;;;;;;;;;;;14.53;55.46;101535.09;5075140;28;1204;-90
2022/04/29 10:54:11;;;;;;;;;;;;;;;14.48;54.92;101543.34;5076439;28;1967;-91
2022/04/29 10:56:37;;;;;;;;;;;;;;;14.39;54.61;101535.69;5076357;28;1199;-91
2022/04/29 10:59:09;;;;;;;;;;;;;;;14.40;54.73;101533.75;5090684;28;1448;-92
2022/04/29 11:01:35;;;;;;;;;;;;;;;14.50;54.98;101532.88;5069254;28;1388;-91
2022/04/29 11:04:15;;;;;;;;;;;;;;;14.52;53.75;101530.69;5075726;28;1184;-92
2022/04/29 11:06:45;;;;;;;;;;;;;;;14.52;51.91;101533.44;5057008;28;1727;-91
2022/04/29 11:09:28;;;;;;;;;;;;;;;14.56;51.93;101524.31;5073000;28;1362;-92
2022/04/29 11:11:54;;;;;;;;;;;;;;;14.61;52.13;101527.06;5075659;28;1309;-90
2022/04/29 11:14:19;;;;;;;;;;;;;;;14.72;52.50;101527.81;5076088;28;1894;-91
2022/04/29 11:16:52;;;;;;;;;;;;;;;14.85;52.11;101518.94;5076340;28;1712;-91
2022/04/29 11:19:22;;;;;;;;;;;;;;;14.95;51.50;101518.06;5072807;28;1837;-89
2022/04/29 11:24:42;;;;;;;;;;;;;;;14.93;49.79;101515.59;5094085;28;1785;-91
2022/04/29 11:27:07;;;;;;;;;;;;;;;15.08;49.10;101514.66;5075595;28;1744;-90
2022/04/29 11:29:40;;;;;;;;;;;;;;;15.15;50.39;101507.72;5073818;28;1871;-91
2022/04/29 11:32:05;;;;;;;;;;;;;;;15.43;51.12;101519.09;5074461;28;1398;-90
2022/04/29 11:34:30;;;;;;;;;;;;;;;15.37;49.47;101506.47;5075661;28;1960;-91
2022/04/29 11:36:56;;;;;;;;;;;;;;;15.40;50.44;101512.22;5075618;28;1732;-91
2022/04/29 11:39:21;;;;;;;;;;;;;;;15.36;49.12;101504.81;5075612;28;1861;-90
2022/04/29 11:41:57;;;;;;;;;;;;;;;15.37;49.28;101500.94;5064592;28;1609;-90
2022/04/29 11:44:33;;;;;;;;;;;;;;;15.43;51.04;101497.84;5055556;28;1730;-91
2022/04/29 11:46:58;;;;;;;;;;;;;;;15.52;48.71;101498.88;5090669;28;1329;-91
2022/04/29 11:49:27;;;;;;;;;;;;;;;15.60;48.94;101500.22;5075648;28;1299;-91
2022/04/29 11:51:52;;;;;;;;;;;;;;;15.68;50.21;101496.84;5071977;28;1482;-91
2022/04/29 11:54:17;;;;;;;;;;;;;;;15.64;48.70;101484.75;5072825;28;1890;-91
2022/04/29 11:56:42;;;;;;;;;;;;;;;15.72;49.48;101475.84;5075667;28;1359;-91
2022/04/29 11:59:08;;;;;;;;;;;;;;;15.83;47.62;101480.13;5075238;28;1517;-92
2022/04/29 12:01:34;;;;;;;;;;;;;;;15.88;46.53;101470.97;5095384;28;1359;-92
2022/04/29 12:03:59;;;;;;;;;;;;;;;16.06;47.40;101470.22;5073717;28;1495;-93
2022/04/29 12:06:24;;;;;;;;;;;;;;;16.21;47.12;101467.28;5075475;28;1427;-89
2022/04/29 12:08:50;;;;;;;;;;;;;;;16.31;46.73;101459.97;5075161;28;1359;-91
2022/04/29 12:11:23;;;;;;;;;;;;;;;16.31;45.30;101460.81;5092388;28;1685;-91
2022/04/29 12:13:49;;;;;;;;;;;;;;;16.40;47.46;101458.22;5081691;28;1950;-91
2022/04/29 12:16:14;;;;;;;;;;;;;;;16.45;45.54;101453.44;5065188;28;1360;-89
2022/04/29 12:18:44;;;;;;;;;;;;;;;16.60;47.18;101449.63;5075398;28;1347;-92
2022/04/29 12:21:09;;;;;;;;;;;;;;;16.64;46.12;101448.78;5058847;28;1886;-90
2022/04/29 12:23:35;;;;;;;;;;;;;;;16.61;47.27;101448.53;5059074;28;1435;-91
2022/04/29 12:26:01;;;;;;;;;;;;;;;16.59;48.82;101451.56;5075191;28;1317;-92
2022/04/29 12:28:27;;;;;;;;;;;;;;;16.58;45.91;101454.66;5074725;28;1433;-93
2022/04/29 12:36:27;;;;;;;;;;;;;;;16.61;46.90;101445.78;5093476;28;1364;-92
2022/04/29 12:39:02;;;;;;;;;;;;;;;16.57;45.73;101433.66;5093043;28;1378;-93
2022/04/29 12:41:27;;;;;;;;;;;;;;;16.65;46.51;101438.56;5089834;28;1141;-92
2022/04/29 12:43:53;;;;;;;;;;;;;;;16.68;44.97;101440.69;5063541;28;1349;-91
2022/04/29 12:46:21;;;;;;;;;;;;;;;16.76;46.28;101430.94;5076291;28;1342;-92
2022/04/29 12:48:47;;;;;;;;;;;;;;;16.73;46.58;101434.28;5075281;28;1517;-92
2022/04/29 12:51:26;;;;;;;;;;;;;;;16.60;46.39;101427.50;5072918;28;1227;-91
2022/04/29 12:53:52;;;;;;;;;;;;;;;16.55;47.28;101422.06;5074920;28;1948;-92
2022/04/29 12:56:30;;;;;;;;;;;;;;;16.48;46.83;101416.91;5077805;28;1381;-92
2022/04/29 12:58:56;;;;;;;;;;;;;;;16.41;46.53;101418.41;5096772;28;1169;-92
2022/04/29 13:01:21;;;;;;;;;;;;;;;16.43;48.01;101419.75;5076041;28;1372;-92
2022/04/29 13:03:51;;;;;;;;;;;;;;;16.48;48.32;101419.69;5076732;28;1239;-91
2022/04/29 13:06:17;;;;;;;;;;;;;;;16.56;48.69;101415.44;5078880;28;1305;-92
2022/04/29 13:08:43;;;;;;;;;;;;;;;16.46;47.34;101416.38;5074365;28;1300;-91
2022/04/29 13:11:13;;;;;;;;;;;;;;;16.57;46.98;101406.03;5069508;28;1729;-92
2022/04/29 13:13:39;;;;;;;;;;;;;;;16.73;46.39;101412.16;5074023;28;1898;-91
2022/04/29 13:16:04;;;;;;;;;;;;;;;16.91;46.24;101409.41;5077740;28;1511;-91
2022/04/29 13:18:29;;;;;;;;;;;;;;;17.11;47.19;101404.63;5077935;28;1300;-91
2022/04/29 13:20:55;;;;;;;;;;;;;;;17.93;45.76;101404.84;5063694;28;1443;-91